Stella Prima — PHEA — position and weather

sailwx.info

Track history (hours):
 
Tides and Currents Weather Stations Pressure Air Temp Water Temp Dewpoint Dewpoint Depression Visibility Wind Speed Wind Dir Waves Ship Positions

Stella Prima

Last reported at 2015-Jan-22 01:13 UTC. Time now 2015-Jan-25 18:23 UTC.
Position N 50°23' W 000°47'.

Length 100 m; beam 21 m.

Type: Cargo ship. MMSI: 246460000.

Date/timePositionNaut miles runAvg speedWind from/ knotsBaromVisibWave heightAir tempDewpointWater temp
2015-Jan-22 01:13N 50°23' W 000°47'3112.5
2015-Jan-21 22:43N 50°31' E 000°00'310.6
2015-Jan-21 22:24N 50°31' E 000°06'910.4
2015-Jan-21 21:34N 50°34' E 000°19'1110.8
2015-Jan-21 20:33N 50°38' E 000°35'1212.0
2015-Jan-21 19:33N 50°44' E 000°51'1614.2
2015-Jan-21 18:28N 50°54' E 001°09'1314.8
2015-Jan-21 17:34N 51°03' E 001°26'1212.5
2015-Jan-21 16:33N 51°11' E 001°40'1111.2
2015-Jan-21 15:33N 51°20' E 001°51'1010.4
2015-Jan-21 14:33N 51°29' E 001°59'1010.3
2015-Jan-21 13:33N 51°39' E 002°06'6811.4
2015-Jan-21 07:33N 52°47' E 002°09'1212.5
2015-Jan-21 06:33N 52°56' E 001°54'1212.0
2015-Jan-21 05:33N 53°03' E 001°38'1111.4
2015-Jan-21 04:33N 53°10' E 001°23'3710.9
2015-Jan-21 01:11N 53°41' E 000°48'710.3
2015-Jan-21 00:33N 53°45' E 000°41'10 9.9
2015-Jan-20 23:33N 53°54' E 000°32'1010.2
2015-Jan-20 22:33N 54°02' E 000°22'1010.2
2015-Jan-20 21:33N 54°11' E 000°13'1110.5
2015-Jan-20 20:33N 54°18' E 000°00'1111.1
2015-Jan-20 19:33N 54°25' W 000°14'1211.7
2015-Jan-20 18:33N 54°33' W 000°29'1211.8
2015-Jan-20 17:33N 54°40' W 000°46'1212.1
2015-Jan-20 16:31N 54°41' W 001°08'2 2.5
2015-Jan-20 15:33N 54°42' W 001°12'0 0.0
2015-Jan-20 14:34N 54°42' W 001°12'0 0.0
2015-Jan-20 13:33N 54°42' W 001°12'0 0.0
2015-Jan-20 12:33N 54°42' W 001°12'0 0.0
2015-Jan-20 11:33N 54°42' W 001°12'0 0.0
2015-Jan-20 10:33N 54°42' W 001°12'0 0.0
2015-Jan-20 09:33N 54°42' W 001°12'0 0.0
2015-Jan-20 08:30N 54°42' W 001°12'0 0.0
2015-Jan-20 07:33N 54°42' W 001°12'0 0.0
2015-Jan-20 06:31N 54°42' W 001°12'0 0.0
2015-Jan-20 05:27N 54°42' W 001°12'0 0.0
2015-Jan-20 04:26N 54°42' W 001°12'0 0.0
2015-Jan-20 03:33N 54°42' W 001°12'0 0.0
2015-Jan-20 02:19N 54°42' W 001°12'0 0.0
2015-Jan-20 01:22N 54°42' W 001°12'0 0.0
2015-Jan-20 00:31N 54°42' W 001°12'0 0.0
2015-Jan-19 23:30N 54°42' W 001°12'0 0.0
2015-Jan-19 22:33N 54°42' W 001°12'0 0.0
2015-Jan-19 21:29N 54°42' W 001°12'0 0.0
2015-Jan-19 20:33N 54°42' W 001°12'0 0.0
2015-Jan-19 19:29N 54°42' W 001°12'0 0.0
2015-Jan-19 18:19N 54°42' W 001°12'0 0.0
2015-Jan-19 17:24N 54°42' W 001°12'0 0.0
2015-Jan-19 16:30N 54°42' W 001°12'0 0.0
2015-Jan-19 15:33N 54°42' W 001°12'0 0.0
2015-Jan-19 14:33N 54°42' W 001°12'0 0.0
2015-Jan-19 13:32N 54°42' W 001°12'0 0.0
2015-Jan-19 12:30N 54°42' W 001°12'2 1.7
2015-Jan-19 11:26N 54°41' W 001°09'4 4.4
2015-Jan-19 10:33N 54°43' W 001°04'6 5.9
2015-Jan-19 09:33N 54°46' W 000°54'1410.1
2015-Jan-19 08:07N 54°51' W 000°31'710.2
2015-Jan-19 07:27N 54°54' W 000°20'910.1
2015-Jan-19 06:33N 54°57' W 000°05'38110.0
2015-Jan-17 16:28N 57°48' E 010°10'5 5.2
2015-Jan-17 15:33N 57°48' E 010°18'5 4.8
2015-Jan-17 14:33N 57°49' E 010°27'5 4.9
2015-Jan-17 13:33N 57°49' E 010°37'6 5.6
2015-Jan-17 12:33N 57°48' E 010°47'9 9.2
2015-Jan-17 11:33N 57°42' E 010°60'1110.8
2015-Jan-17 10:33N 57°35' E 011°14'1211.8
2015-Jan-17 09:33N 57°26' E 011°29'1212.4
2015-Jan-17 08:33N 57°14' E 011°38'1212.5
2015-Jan-17 07:33N 57°02' E 011°45'1312.5
2015-Jan-17 06:33N 56°50' E 011°51'1212.0
2015-Jan-17 05:32N 56°38' E 011°46'  
Track history (hours):
 
Tides and Currents Weather Stations Pressure Air Temp Water Temp Dewpoint Dewpoint Depression Visibility Wind Speed Wind Dir Waves Ship Positions

Stella Prima

Last reported at 2015-Jan-22 01:13 UTC. Time now 2015-Jan-25 18:23 UTC.
Position N 50°23' W 000°47'.

Length 100 m; beam 21 m.

Type: Cargo ship. MMSI: 246460000.

Date/timePositionNaut miles runAvg speedWind from/ knotsBaromVisibWave heightAir tempDewpointWater temp
2015-Jan-22 01:13N 50°23' W 000°47'3112.5
2015-Jan-21 22:43N 50°31' E 000°00'310.6
2015-Jan-21 22:24N 50°31' E 000°06'910.4
2015-Jan-21 21:34N 50°34' E 000°19'1110.8
2015-Jan-21 20:33N 50°38' E 000°35'1212.0
2015-Jan-21 19:33N 50°44' E 000°51'1614.2
2015-Jan-21 18:28N 50°54' E 001°09'1314.8
2015-Jan-21 17:34N 51°03' E 001°26'1212.5
2015-Jan-21 16:33N 51°11' E 001°40'1111.2
2015-Jan-21 15:33N 51°20' E 001°51'1010.4
2015-Jan-21 14:33N 51°29' E 001°59'1010.3
2015-Jan-21 13:33N 51°39' E 002°06'6811.4
2015-Jan-21 07:33N 52°47' E 002°09'1212.5
2015-Jan-21 06:33N 52°56' E 001°54'1212.0
2015-Jan-21 05:33N 53°03' E 001°38'1111.4
2015-Jan-21 04:33N 53°10' E 001°23'3710.9
2015-Jan-21 01:11N 53°41' E 000°48'710.3
2015-Jan-21 00:33N 53°45' E 000°41'10 9.9
2015-Jan-20 23:33N 53°54' E 000°32'1010.2
2015-Jan-20 22:33N 54°02' E 000°22'1010.2
2015-Jan-20 21:33N 54°11' E 000°13'1110.5
2015-Jan-20 20:33N 54°18' E 000°00'1111.1
2015-Jan-20 19:33N 54°25' W 000°14'1211.7
2015-Jan-20 18:33N 54°33' W 000°29'1211.8
2015-Jan-20 17:33N 54°40' W 000°46'1212.1
2015-Jan-20 16:31N 54°41' W 001°08'2 2.5
2015-Jan-20 15:33N 54°42' W 001°12'0 0.0
2015-Jan-20 14:34N 54°42' W 001°12'0 0.0
2015-Jan-20 13:33N 54°42' W 001°12'0 0.0
2015-Jan-20 12:33N 54°42' W 001°12'0 0.0
2015-Jan-20 11:33N 54°42' W 001°12'0 0.0
2015-Jan-20 10:33N 54°42' W 001°12'0 0.0
2015-Jan-20 09:33N 54°42' W 001°12'0 0.0
2015-Jan-20 08:30N 54°42' W 001°12'0 0.0
2015-Jan-20 07:33N 54°42' W 001°12'0 0.0
2015-Jan-20 06:31N 54°42' W 001°12'0 0.0
2015-Jan-20 05:27N 54°42' W 001°12'0 0.0
2015-Jan-20 04:26N 54°42' W 001°12'0 0.0
2015-Jan-20 03:33N 54°42' W 001°12'0 0.0
2015-Jan-20 02:19N 54°42' W 001°12'0 0.0
2015-Jan-20 01:22N 54°42' W 001°12'0 0.0
2015-Jan-20 00:31N 54°42' W 001°12'0 0.0
2015-Jan-19 23:30N 54°42' W 001°12'0 0.0
2015-Jan-19 22:33N 54°42' W 001°12'0 0.0
2015-Jan-19 21:29N 54°42' W 001°12'0 0.0
2015-Jan-19 20:33N 54°42' W 001°12'0 0.0
2015-Jan-19 19:29N 54°42' W 001°12'0 0.0
2015-Jan-19 18:19N 54°42' W 001°12'0 0.0
2015-Jan-19 17:24N 54°42' W 001°12'0 0.0
2015-Jan-19 16:30N 54°42' W 001°12'0 0.0
2015-Jan-19 15:33N 54°42' W 001°12'0 0.0
2015-Jan-19 14:33N 54°42' W 001°12'0 0.0
2015-Jan-19 13:32N 54°42' W 001°12'0 0.0
2015-Jan-19 12:30N 54°42' W 001°12'2 1.7
2015-Jan-19 11:26N 54°41' W 001°09'4 4.4
2015-Jan-19 10:33N 54°43' W 001°04'6 5.9
2015-Jan-19 09:33N 54°46' W 000°54'1410.1
2015-Jan-19 08:07N 54°51' W 000°31'710.2
2015-Jan-19 07:27N 54°54' W 000°20'910.1
2015-Jan-19 06:33N 54°57' W 000°05'38110.0
2015-Jan-17 16:28N 57°48' E 010°10'5 5.2
2015-Jan-17 15:33N 57°48' E 010°18'5 4.8
2015-Jan-17 14:33N 57°49' E 010°27'5 4.9
2015-Jan-17 13:33N 57°49' E 010°37'6 5.6
2015-Jan-17 12:33N 57°48' E 010°47'9 9.2
2015-Jan-17 11:33N 57°42' E 010°60'1110.8
2015-Jan-17 10:33N 57°35' E 011°14'1211.8
2015-Jan-17 09:33N 57°26' E 011°29'1212.4
2015-Jan-17 08:33N 57°14' E 011°38'1212.5
2015-Jan-17 07:33N 57°02' E 011°45'1312.5
2015-Jan-17 06:33N 56°50' E 011°51'1212.0
2015-Jan-17 05:32N 56°38' E 011°46'  

Dump ship's entire track history